Time;durP1;ratioP1;P1;durP2;ratioP2;P2;SDS_P1;SDS_P2;PMS_P1;PMS_P2;Temp;Humidity;BMP_temperature;BMP_pressure;BME280_temperature;BME280_humidity;BME280_pressure;Samples;Min_cycle;Max_cycle;Signal;HPM_P1;HPM_P2
2020/12/24 00:00:46;;;;;;;94.30;48.83;;;;;;;4.03;55.58;101524.34;4999652;28;20463;-92
2020/12/24 00:03:13;;;;;;;86.43;49.45;;;;;;;4.10;55.21;101514.31;4995573;28;20113;-90
2020/12/24 00:05:40;;;;;;;90.35;51.92;;;;;;;4.03;55.87;101513.38;4978642;28;20030;-92
2020/12/24 00:08:08;;;;;;;94.85;51.80;;;;;;;3.12;55.66;101351.69;4977323;28;20026;-90
2020/12/24 00:10:35;;;;;;;103.63;52.75;;;;;;;3.13;56.05;101339.69;4978561;28;20134;-91
2020/12/24 00:13:07;;;;;;;105.38;53.40;;;;;;;1.90;56.39;101151.13;4979498;28;20029;-90
2020/12/24 00:15:34;;;;;;;97.90;50.85;;;;;;;2.87;56.79;101362.81;4997218;28;20395;-87
2020/12/24 00:18:04;;;;;;;88.38;48.88;;;;;;;4.01;56.31;101493.50;4992900;28;20039;-91
2020/12/24 00:20:31;;;;;;;100.90;52.92;;;;;;;3.87;56.35;101497.94;4995709;28;20062;-92
2020/12/24 00:22:58;;;;;;;110.20;54.47;;;;;;;3.45;58.01;101450.94;4984730;28;20130;-93
2020/12/24 00:28:12;;;;;;;93.40;52.47;;;;;;;3.82;58.34;101506.72;5000022;28;20035;-90
2020/12/24 00:30:41;;;;;;;88.88;49.08;;;;;;;3.69;57.96;101469.03;4990875;28;20022;-91
2020/12/24 00:33:14;;;;;;;94.85;53.65;;;;;;;2.93;57.28;101343.97;4987246;28;20030;-94
2020/12/24 00:35:41;;;;;;;92.38;47.92;;;;;;;3.74;57.75;101510.38;5007663;28;20104;-92
2020/12/24 00:38:15;;;;;;;100.85;52.40;;;;;;;3.52;59.50;101503.91;5004809;28;20057;-94
2020/12/24 00:40:42;;;;;;;93.50;50.60;;;;;;;3.05;59.35;101402.72;4996461;28;20039;-93
2020/12/24 00:43:12;;;;;;;86.25;49.92;;;;;;;3.15;58.99;101438.88;5002982;28;20037;-93
2020/12/24 00:45:42;;;;;;;92.72;52.45;;;;;;;3.72;58.89;101522.56;5000600;28;20476;-93
2020/12/24 00:48:09;;;;;;;103.63;51.60;;;;;;;3.05;58.90;101449.22;4982946;28;20041;-93
2020/12/24 00:50:37;;;;;;;91.40;49.40;;;;;;;3.15;60.46;101479.03;4980437;28;20045;-94
2020/12/24 00:53:04;;;;;;;93.18;55.10;;;;;;;3.61;59.97;101543.88;4986231;28;20505;-91
2020/12/24 00:55:31;;;;;;;107.25;54.72;;;;;;;2.38;59.67;101369.50;4980981;28;20118;-93
2020/12/24 00:57:58;;;;;;;106.35;57.17;;;;;;;2.25;59.24;101342.78;4979374;28;20034;-93
2020/12/24 01:00:25;;;;;;;85.20;53.63;;;;;;;2.24;59.14;101341.06;4979878;28;20033;-91
2020/12/24 01:02:51;;;;;;;103.88;52.17;;;;;;;3.55;59.37;101506.28;4993654;28;20525;-91
2020/12/24 01:05:18;;;;;;;103.25;53.33;;;;;;;3.39;60.98;101540.97;4995101;28;20038;-94
2020/12/24 01:07:45;;;;;;;100.10;56.38;;;;;;;3.16;60.79;101491.72;4978644;28;20031;-92
2020/12/24 01:10:13;;;;;;;109.57;56.25;;;;;;;1.59;60.20;101245.69;4983659;28;20125;-94
2020/12/24 01:12:43;;;;;;;100.47;54.33;;;;;;;3.54;60.23;101541.03;5000068;28;20058;-93
2020/12/24 01:15:13;;;;;;;99.93;56.92;;;;;;;3.80;58.56;101541.69;5007731;28;20049;-94
2020/12/24 01:17:53;;;;;;;98.72;55.55;;;;;;;2.82;58.36;101397.22;4992610;28;20038;-94
2020/12/24 01:20:20;;;;;;;99.13;55.97;;;;;;;3.44;57.82;101525.91;4994161;28;20034;-73
2020/12/24 01:22:52;;;;;;;96.78;53.75;;;;;;;3.77;56.51;101559.34;5010839;28;20038;-94
2020/12/24 01:25:19;;;;;;;105.10;55.60;;;;;;;3.55;54.42;101500.81;4982501;28;20496;-73
2020/12/24 01:27:46;;;;;;;122.78;56.65;;;;;;;3.69;53.92;101516.41;4988962;28;20030;-74
2020/12/24 01:30:16;;;;;;;113.03;56.30;;;;;;;4.02;52.85;101555.50;4989507;28;20034;-91
2020/12/24 01:32:51;;;;;;;106.90;56.78;;;;;;;3.09;53.45;101447.81;4993865;28;20026;-92
2020/12/24 01:35:18;;;;;;;105.55;61.42;;;;;;;3.88;52.90;101530.66;4982193;28;20039;-91
2020/12/24 01:37:45;;;;;;;112.15;60.78;;;;;;;3.98;52.80;101511.16;4982094;28;20030;-90
2020/12/24 01:40:12;;;;;;;108.10;56.22;;;;;;;4.07;51.87;101531.13;4999995;28;20030;-90
2020/12/24 01:42:40;;;;;;;107.03;59.28;;;;;;;3.97;53.45;101548.69;5001081;28;20129;-87
2020/12/24 01:45:13;;;;;;;108.93;62.92;;;;;;;3.41;54.20;101481.41;4995735;28;20034;-91
2020/12/24 01:47:50;;;;;;;96.00;57.08;;;;;;;2.73;54.69;101385.50;4991370;28;20491;-90
2020/12/24 01:50:17;;;;;;;117.13;61.58;;;;;;;3.24;54.80;101477.09;4974254;28;20034;-89
2020/12/24 01:52:49;;;;;;;107.68;61.97;;;;;;;3.23;56.17;101509.13;4994121;28;20034;-90
2020/12/24 01:55:16;;;;;;;118.38;59.92;;;;;;;2.36;55.44;101330.56;4993286;28;20030;-94
2020/12/24 01:57:47;;;;;;;114.68;60.38;;;;;;;4.14;53.46;101570.44;4979772;28;20029;-90
2020/12/24 02:00:14;;;;;;;94.88;53.63;;;;;;;3.80;53.17;101591.00;4996202;28;20121;-91
2020/12/24 02:02:41;;;;;;;121.70;59.25;;;;;;;3.64;54.03;101557.19;4979617;28;20113;-92
2020/12/24 02:05:11;;;;;;;108.20;50.25;;;;;;;2.26;51.76;101286.25;4975607;28;20161;-91
2020/12/24 02:07:38;;;;;;;107.93;53.63;;;;;;;3.07;51.63;101449.88;4980116;28;20038;-89
2020/12/24 02:10:08;;;;;;;81.95;46.30;;;;;;;1.97;49.12;101285.91;4989062;28;20495;-91
2020/12/24 02:12:35;;;;;;;88.93;45.00;;;;;;;2.26;47.94;101374.53;4991949;28;20069;-91
2020/12/24 02:15:02;;;;;;;74.05;37.22;;;;;;;2.03;44.85;101326.16;4978874;28;20042;-92
2020/12/24 02:17:29;;;;;;;64.40;34.40;;;;;;;3.40;44.18;101492.56;5014174;28;20015;-94
2020/12/24 02:19:58;;;;;;;64.68;35.25;;;;;;;3.46;43.58;101485.50;5043778;23;20050;-95
2020/12/24 02:22:25;;;;;;;64.90;33.90;;;;;;;3.44;44.51;101479.34;5008366;28;20026;-96
2020/12/24 02:24:52;;;;;;;77.30;30.63;;;;;;;3.27;44.10;101433.81;4983570;28;20102;-94
2020/12/24 02:27:19;;;;;;;65.85;29.58;;;;;;;4.03;43.13;101568.19;4976763;28;20027;-91
2020/12/24 02:29:58;;;;;;;64.75;26.95;;;;;;;3.20;43.96;101454.72;4970362;28;20448;-90
2020/12/24 02:32:25;;;;;;;57.95;28.52;;;;;;;3.55;43.75;101482.50;4969214;28;20026;-89
2020/12/24 02:34:55;;;;;;;71.68;27.90;;;;;;;3.73;43.71;101535.25;4981218;28;20038;-93
2020/12/24 02:37:23;;;;;;;63.40;27.60;;;;;;;3.66;42.79;101492.16;4970155;28;20034;-92
2020/12/24 02:39:53;;;;;;;49.10;21.98;;;;;;;3.69;42.77;101549.28;4970364;28;21638;-90
2020/12/24 02:42:20;;;;;;;56.00;21.60;;;;;;;3.81;42.31;101548.84;4968794;28;20027;-91
2020/12/24 02:44:52;;;;;;;55.72;21.13;;;;;;;3.24;42.56;101455.22;4988137;28;20070;-92
2020/12/24 02:47:19;;;;;;;47.35;24.35;;;;;;;3.14;42.81;101423.47;4969287;28;20027;-92
2020/12/24 02:49:46;;;;;;;47.15;22.20;;;;;;;2.98;42.78;101462.75;4963521;28;20038;-74
2020/12/24 02:52:13;;;;;;;50.38;19.85;;;;;;;3.73;42.08;101554.41;4980614;28;20030;-91
2020/12/24 02:54:40;;;;;;;47.70;20.67;;;;;;;3.03;42.36;101455.91;4976574;28;20102;-91
2020/12/24 02:57:33;;;;;;;51.50;22.90;;;;;;;3.44;42.38;101534.09;4969140;28;20154;-95
2020/12/24 03:00:11;;;;;;;49.38;20.02;;;;;;;1.45;43.10;101224.59;4968464;28;20045;-91
2020/12/24 03:02:39;;;;;;;55.88;21.45;;;;;;;3.48;43.08;101540.91;4968072;28;20035;-92
2020/12/24 03:05:17;;;;;;;;;;;;;;;;;;;;;
2020/12/24 03:07:50;;;;;;;42.13;17.98;;;;;;;2.99;43.67;101437.09;4983573;28;20121;-93
2020/12/24 03:10:18;;;;;;;44.35;20.20;;;;;;;3.22;43.46;101490.97;4970563;28;20118;-93
2020/12/24 03:12:45;;;;;;;46.28;19.25;;;;;;;1.89;43.30;101289.53;4985549;28;20111;-96
2020/12/24 03:15:12;;;;;;;35.75;17.17;;;;;;;2.85;43.77;101446.97;4966402;28;20026;-95
2020/12/24 03:17:42;;;;;;;57.17;16.73;;;;;;;2.92;43.49;101460.75;4963134;28;20749;-93
2020/12/24 03:20:09;;;;;;;37.53;16.73;;;;;;;3.28;43.94;101539.50;4970235;28;20110;-94
2020/12/24 03:22:38;;;;;;;42.90;16.85;;;;;;;3.12;44.78;101518.59;4968245;28;20027;-92
2020/12/24 03:25:05;;;;;;;36.08;14.75;;;;;;;3.08;44.07;101478.94;4961223;28;20039;-93
2020/12/24 03:27:32;;;;;;;36.17;18.33;;;;;;;2.79;44.02;101423.06;4978458;28;20046;-86
2020/12/24 03:29:59;;;;;;;40.08;14.77;;;;;;;3.52;43.88;101534.03;4979483;28;21200;-92
2020/12/24 03:32:26;;;;;;;51.90;16.52;;;;;;;2.86;44.72;101456.03;4976460;28;20069;-96
2020/12/24 03:34:55;;;;;;;45.47;17.58;;;;;;;2.31;45.48;101363.06;4985945;28;20030;-94
2020/12/24 03:37:29;;;;;;;46.90;17.77;;;;;;;2.55;45.37;101359.31;4971881;28;20034;-96
2020/12/24 03:39:59;;;;;;;48.60;18.98;;;;;;;3.10;44.71;101422.13;4967239;28;20046;-93
2020/12/24 03:42:26;;;;;;;;;;;;;;;3.80;45.56;101508.81;4969115;28;20035;-93
2020/12/24 03:44:53;;;;;;;42.30;15.25;;;;;;;3.18;46.73;101458.69;4978874;28;19953;-93
2020/12/24 03:47:19;;;;;;;49.70;15.82;;;;;;;3.73;46.57;101516.06;4966694;28;20033;-91
2020/12/24 03:49:46;;;;;;;48.08;16.55;;;;;;;2.79;48.22;101392.97;4967241;28;20062;-89
2020/12/24 03:52:13;;;;;;;38.67;17.02;;;;;;;2.83;49.20;101409.88;4971471;28;20030;-95
2020/12/24 03:54:40;;;;;;;44.42;16.63;;;;;;;3.27;49.26;101504.97;4972519;28;20073;-92
2020/12/24 03:57:07;;;;;;;36.38;14.05;;;;;;;2.43;48.93;101358.03;4968191;28;20492;-91
2020/12/24 03:59:34;;;;;;;39.20;15.15;;;;;;;2.48;49.88;101409.44;4967323;28;20614;-88
2020/12/24 04:02:01;;;;;;;29.50;14.48;;;;;;;3.08;50.54;101522.72;4961798;28;20117;-91
2020/12/24 04:04:28;;;;;;;49.03;16.40;;;;;;;2.62;50.46;101414.13;4963588;28;20131;-95
2020/12/24 04:06:55;;;;;;;39.28;16.27;;;;;;;2.50;51.68;101449.22;4966410;28;20089;-91
2020/12/24 04:09:22;;;;;;;41.90;16.45;;;;;;;2.21;51.51;101409.75;4976914;28;20023;-88
2020/12/24 04:11:49;;;;;;;51.70;16.92;;;;;;;3.02;52.08;101515.22;4966530;28;20035;-91
2020/12/24 04:14:16;;;;;;;38.40;16.40;;;;;;;2.86;51.97;101530.72;4973575;28;20130;-91
2020/12/24 04:16:43;;;;;;;38.67;16.65;;;;;;;2.05;52.61;101413.41;4965167;28;20026;-90
2020/12/24 04:19:10;;;;;;;47.50;16.40;;;;;;;2.37;52.84;101459.88;4973760;28;20071;-93
2020/12/24 04:21:37;;;;;;;37.88;14.55;;;;;;;2.27;52.88;101427.31;4957754;28;20046;-92
2020/12/24 04:24:04;;;;;;;40.45;13.90;;;;;;;2.08;52.89;101401.28;4963098;28;20034;-89
2020/12/24 04:26:32;;;;;;;32.30;16.92;;;;;;;2.96;53.06;101513.22;4963796;28;20031;-91
2020/12/24 04:28:59;;;;;;;43.08;17.77;;;;;;;2.57;53.81;101468.50;4973998;28;20079;-92
2020/12/24 04:31:26;;;;;;;43.53;18.45;;;;;;;2.78;53.74;101467.84;4981741;28;20110;-93
2020/12/24 04:33:52;;;;;;;42.58;16.52;;;;;;;1.85;53.62;101244.50;4965036;28;20035;-92
2020/12/24 04:36:19;;;;;;;53.63;18.80;;;;;;;2.91;53.98;101439.06;4962506;28;20574;-87
2020/12/24 04:38:46;;;;;;;46.25;15.88;;;;;;;2.85;54.45;101485.25;4978687;28;20094;-91
2020/12/24 04:41:13;;;;;;;44.03;17.30;;;;;;;2.96;53.71;101442.09;4967727;28;20062;-92
2020/12/24 04:43:43;;;;;;;49.83;17.80;;;;;;;2.97;55.24;101514.94;4968994;28;20213;-93
2020/12/24 04:46:13;;;;;;;40.67;15.90;;;;;;;2.80;54.26;101504.06;4974273;28;20031;-92
2020/12/24 04:48:40;;;;;;;27.57;12.23;;;;;;;2.72;54.65;101536.94;4973616;28;20468;-91
2020/12/24 04:51:13;;;;;;;35.00;14.70;;;;;;;2.01;53.13;101436.63;4979053;28;20278;-91
2020/12/24 04:53:40;;;;;;;39.15;16.23;;;;;;;2.74;54.00;101543.09;4981989;28;20035;-92
2020/12/24 04:56:07;;;;;;;42.55;15.73;;;;;;;1.84;54.21;101367.56;4957724;28;20038;-92
2020/12/24 04:58:35;;;;;;;40.80;17.20;;;;;;;2.55;53.67;101487.81;4962046;28;20081;-93
2020/12/24 05:01:02;;;;;;;43.00;16.50;;;;;;;2.43;50.25;101459.16;4984036;28;20030;-94
2020/12/24 05:03:29;;;;;;;31.98;12.68;;;;;;;2.49;48.66;101543.19;4963416;28;20031;-95
2020/12/24 05:05:58;;;;;;;33.03;11.63;;;;;;;1.46;48.92;101366.31;4956307;28;20035;-96
2020/12/24 05:08:26;;;;;;;30.13;11.18;;;;;;;1.87;48.06;101367.22;4975160;28;20053;-96
2020/12/24 05:11:09;;;;;;;27.50;11.25;;;;;;;0.89;48.96;101226.31;4982110;28;20105;-95
2020/12/24 05:13:42;;;;;;;31.55;12.70;;;;;;;2.66;52.80;101546.72;4967479;28;20031;-93
2020/12/24 05:16:16;;;;;;;27.05;11.60;;;;;;;0.84;50.60;101299.63;4972438;28;20050;-92
2020/12/24 05:18:43;;;;;;;33.97;13.02;;;;;;;2.12;51.01;101462.69;4958513;28;20039;-91
2020/12/24 05:21:11;;;;;;;39.78;12.50;;;;;;;2.52;52.10;101552.91;4957487;28;20039;-92
2020/12/24 05:23:46;;;;;;;30.75;11.93;;;;;;;1.66;52.83;101442.34;4961952;28;20058;-95
2020/12/24 05:26:23;;;;;;;56.95;15.57;;;;;;;1.55;51.97;101369.03;4957446;28;20104;-93
2020/12/24 05:28:50;;;;;;;37.83;12.27;;;;;;;1.76;51.65;101399.34;4979390;28;20031;-93
2020/12/24 05:31:34;;;;;;;32.42;10.27;;;;;;;1.98;51.17;101376.88;4961017;28;20019;-92
2020/12/24 05:34:01;;;;;;;30.30;10.70;;;;;;;2.92;51.69;101552.91;4978536;28;20503;-93
2020/12/24 05:36:28;;;;;;;29.90;10.57;;;;;;;2.90;50.63;101541.31;4975699;28;20084;-93
2020/12/24 05:38:55;;;;;;;27.65;9.10;;;;;;;2.44;51.48;101458.16;4963508;28;20038;-93
2020/12/24 05:41:31;;;;;;;34.53;11.07;;;;;;;0.51;51.33;101231.47;4981847;28;20105;-96
2020/12/24 05:44:17;;;;;;;22.05;8.57;;;;;;;2.63;50.33;101557.16;4984261;28;20105;-94
2020/12/24 05:46:44;;;;;;;25.10;7.82;;;;;;;2.47;50.41;101561.66;4981062;28;20035;-91
2020/12/24 05:49:19;;;;;;;21.73;8.70;;;;;;;2.35;51.13;101563.03;4982991;28;20031;-95
2020/12/24 05:51:57;;;;;;;22.23;7.70;;;;;;;2.45;50.62;101560.97;4972234;28;20113;-93
2020/12/24 05:54:25;;;;;;;21.27;6.55;;;;;;;1.55;50.72;101396.31;4973112;28;20026;-95
2020/12/24 05:56:54;;;;;;;24.77;8.13;;;;;;;2.08;50.57;101483.22;4962644;28;20034;-92
2020/12/24 05:59:26;;;;;;;27.23;10.30;;;;;;;2.41;50.94;101570.56;4974213;28;20065;-92
2020/12/24 06:02:01;;;;;;;27.90;8.00;;;;;;;2.30;51.44;101569.03;4962780;28;20039;-96
2020/12/24 06:04:44;;;;;;;25.65;8.70;;;;;;;1.17;51.89;101362.28;4964648;28;20027;-94
2020/12/24 06:07:14;;;;;;;37.67;9.95;;;;;;;1.54;52.46;101413.72;4975760;28;20039;-93
2020/12/24 06:09:43;;;;;;;23.40;8.88;;;;;;;2.08;51.47;101488.69;4993324;28;20023;-95
2020/12/24 06:12:28;;;;;;;26.02;7.40;;;;;;;-0.07;51.91;101190.66;4970811;28;20113;-96
2020/12/24 06:15:00;;;;;;;26.63;9.63;;;;;;;2.46;51.03;101529.88;4986448;28;20090;-96
2020/12/24 06:17:29;;;;;;;21.08;9.15;;;;;;;1.66;50.23;101392.38;4980056;28;20077;-94
2020/12/24 06:19:57;;;;;;;26.77;8.13;;;;;;;1.78;50.35;101453.75;4986039;28;20058;-93
2020/12/24 06:22:26;;;;;;;20.15;6.80;;;;;;;1.98;47.38;101476.09;4979105;28;20106;-94
2020/12/24 06:24:58;;;;;;;13.65;4.38;;;;;;;2.49;46.17;101578.72;4981227;28;20118;-95
2020/12/24 06:27:54;;;;;;;24.08;5.32;;;;;;;2.50;45.97;101553.09;4981431;28;20033;-93
2020/12/24 06:30:24;;;;;;;20.35;5.63;;;;;;;0.76;46.72;101315.94;4960347;28;20054;-94
2020/12/24 06:33:00;;;;;;;14.73;6.35;;;;;;;1.69;47.43;101473.91;4989647;28;20031;-95
2020/12/24 06:35:42;;;;;;;31.38;7.18;;;;;;;2.23;48.40;101536.09;4988520;28;20035;-96
2020/12/24 06:38:13;;;;;;;17.92;5.78;;;;;;;2.08;48.56;101549.63;4980375;28;20037;-90
2020/12/24 06:40:41;;;;;;;27.42;7.55;;;;;;;0.46;48.08;101272.03;4961010;28;20113;-95
2020/12/24 06:43:09;;;;;;;17.25;5.32;;;;;;;1.16;47.92;101381.53;4969348;28;20471;-95
2020/12/24 06:45:38;;;;;;;20.80;5.88;;;;;;;0.98;47.40;101302.63;4965823;28;20033;-94
2020/12/24 06:48:29;;;;;;;16.65;6.32;;;;;;;-0.63;47.05;101082.41;4963635;28;20035;-93
2020/12/24 06:51:04;;;;;;;20.40;6.65;;;;;;;1.62;47.63;101463.69;4987386;28;20039;-95
2020/12/24 06:53:49;;;;;;;13.00;4.78;;;;;;;2.17;48.02;101564.13;4989024;28;20051;-96
2020/12/24 06:56:23;;;;;;;17.77;5.53;;;;;;;2.23;48.45;101549.78;5065655;23;20051;-95
2020/12/24 07:12:26;;;;;;;19.15;5.97;;;;;;;1.09;46.58;101416.84;6000158;23;20627;-93
2020/12/24 07:17:49;;;;;;;14.85;6.25;;;;;;;-1.05;45.41;101068.72;5015865;28;20051;-96
2020/12/24 07:20:35;;;;;;;7.63;3.58;;;;;;;1.52;44.22;101500.38;4998473;28;20113;-96
2020/12/24 07:23:03;;;;;;;16.90;4.95;;;;;;;1.49;44.92;101524.25;4990199;28;20037;-96
2020/12/24 07:25:35;;;;;;;15.95;4.43;;;;;;;1.80;43.97;101577.31;4984064;28;20046;-96
2020/12/24 07:28:03;;;;;;;15.18;5.45;;;;;;;1.37;44.56;101509.25;4996703;28;20031;-96
2020/12/24 07:30:30;;;;;;;8.95;4.72;;;;;;;1.73;45.79;101565.38;4998019;28;20491;-94
2020/12/24 07:33:05;;;;;;;12.90;5.13;;;;;;;1.22;46.69;101459.97;5000713;28;20034;-94
2020/12/24 07:42:49;;;;;;;15.40;5.00;;;;;;;1.72;48.37;101569.97;5030072;23;20070;-91
2020/12/24 07:46:15;;;;;;;14.77;5.43;;;;;;;1.73;48.44;101568.94;5012832;28;20034;-97
2020/12/24 07:48:50;;;;;;;12.52;4.47;;;;;;;-0.87;47.70;101116.69;5009412;28;20038;-96
2020/12/24 07:51:17;;;;;;;8.98;4.47;;;;;;;1.57;47.69;101520.69;5009644;28;20039;-91
2020/12/24 07:53:50;;;;;;;12.43;5.43;;;;;;;1.45;47.89;101500.22;5002187;28;20056;-96
2020/12/24 07:56:26;;;;;;;13.02;4.30;;;;;;;0.67;46.97;101381.38;5023445;28;20026;-96
2020/12/24 07:59:01;;;;;;;17.77;5.15;;;;;;;1.31;47.45;101510.78;5015417;28;20022;-95
2020/12/24 08:01:31;;;;;;;9.52;3.85;;;;;;;-0.63;46.80;101218.38;4991711;28;20090;-96
2020/12/24 08:07:23;;;;;;;12.57;6.45;;;;;;;0.29;47.67;101342.00;4995258;28;20125;-96
2020/12/24 08:09:50;;;;;;;21.40;5.53;;;;;;;0.76;48.85;101430.44;4987715;28;20506;-91
2020/12/24 08:12:24;;;;;;;14.10;5.22;;;;;;;1.69;48.75;101556.69;4991458;28;20030;-96
2020/12/24 08:14:51;;;;;;;13.60;6.05;;;;;;;1.72;48.88;101528.19;4998341;28;20034;-95
2020/12/24 08:17:26;;;;;;;14.20;4.90;;;;;;;1.52;49.74;101552.22;5020024;28;20061;-95
2020/12/24 08:20:06;;;;;;;13.50;4.65;;;;;;;1.41;49.63;101491.50;4978660;28;20031;-91
2020/12/24 08:23:00;;;;;;;17.42;5.47;;;;;;;1.49;50.61;101546.09;4989194;28;20060;-94
2020/12/24 08:25:28;;;;;;;12.48;4.72;;;;;;;1.16;50.90;101490.66;4999529;28;20038;-96
2020/12/24 08:27:57;;;;;;;22.30;5.88;;;;;;;1.42;50.80;101545.06;4993401;28;20479;-95
2020/12/24 08:30:25;;;;;;;15.13;4.78;;;;;;;1.17;49.24;101523.22;4977427;28;20050;-93
2020/12/24 08:32:52;;;;;;;20.23;5.43;;;;;;;1.05;49.55;101535.47;4981992;28;20030;-96
2020/12/24 08:35:19;;;;;;;12.30;4.40;;;;;;;1.38;49.50;101576.47;4988238;28;20030;-95
2020/12/24 08:37:47;;;;;;;15.88;5.55;;;;;;;1.33;49.03;101557.00;4987861;28;20084;-96
2020/12/24 08:40:29;;;;;;;16.17;5.50;;;;;;;1.29;49.56;101547.44;4985048;28;20042;-95
2020/12/24 08:43:00;;;;;;;8.80;4.80;;;;;;;0.68;48.90;101434.88;5001006;28;20035;-93
2020/12/24 08:45:26;;;;;;;;;;;;;;;1.34;48.83;101543.19;4999147;28;20045;-92
2020/12/24 08:47:54;;;;;;;18.90;4.95;;;;;;;1.54;48.00;101539.28;5008017;28;19925;-94
2020/12/24 08:50:38;;;;;;;17.55;4.80;;;;;;;0.56;48.47;101441.66;4999366;28;20050;-95
2020/12/24 08:53:05;;;;;;;21.77;5.95;;;;;;;0.71;48.51;101438.28;5002208;28;20511;-92
2020/12/24 08:55:33;;;;;;;14.35;4.70;;;;;;;0.91;47.95;101450.59;4986456;28;20038;-92
2020/12/24 08:58:00;;;;;;;8.32;5.13;;;;;;;0.50;48.16;101421.38;5000931;28;20097;-96
2020/12/24 09:00:28;;;;;;;12.52;5.35;;;;;;;1.17;48.41;101564.13;4994683;28;20026;-96
2020/12/24 09:03:25;;;;;;;17.95;5.00;;;;;;;1.18;48.61;101554.94;5006540;28;20038;-96
2020/12/24 09:05:58;;;;;;;15.23;4.40;;;;;;;-0.81;47.88;101235.66;5004212;28;20057;-96
2020/12/24 09:08:26;;;;;;;16.55;5.72;;;;;;;-1.83;48.81;101095.00;5008331;28;20013;-92
2020/12/24 09:10:58;;;;;;;12.90;4.68;;;;;;;1.01;48.00;101468.66;5011491;28;20447;-94
2020/12/24 09:13:29;;;;;;;13.63;5.80;;;;;;;0.02;49.50;101358.44;4992861;28;20046;-95
2020/12/24 09:16:08;;;;;;;10.27;5.05;;;;;;;-0.87;49.31;101184.66;5014953;28;20102;-92
2020/12/24 09:18:35;;;;;;;17.98;5.18;;;;;;;0.60;49.44;101463.97;4988788;28;20038;-94
2020/12/24 09:21:10;;;;;;;13.68;5.18;;;;;;;-0.76;49.49;101230.59;4989083;28;20509;-94
2020/12/24 09:23:38;;;;;;;12.20;4.80;;;;;;;0.84;48.92;101474.09;5008780;28;20026;-94
2020/12/24 09:26:05;;;;;;;10.68;4.72;;;;;;;1.03;49.68;101512.97;4989565;28;20026;-93
2020/12/24 09:28:32;;;;;;;13.30;4.82;;;;;;;1.03;50.21;101606.56;4998364;28;20136;-94
2020/12/24 09:31:01;;;;;;;17.23;5.43;;;;;;;-0.55;49.86;101302.75;4994648;28;20038;-93
2020/12/24 09:33:28;;;;;;;9.02;4.97;;;;;;;1.08;51.04;101581.50;4990942;28;20023;-95
2020/12/24 09:35:55;;;;;;;9.52;4.88;;;;;;;1.20;50.80;101577.44;4979933;28;20089;-93
2020/12/24 09:38:22;;;;;;;11.07;4.78;;;;;;;0.19;50.83;101423.84;4977502;28;20043;-94
2020/12/24 09:40:54;;;;;;;13.80;6.10;;;;;;;0.49;51.66;101485.06;4987068;28;20452;-96
2020/12/24 09:43:24;;;;;;;7.47;4.15;;;;;;;1.13;50.39;101546.38;5013329;28;20037;-96
2020/12/24 09:45:51;;;;;;;9.57;4.63;;;;;;;0.72;50.24;101497.22;5014700;28;20423;-95
2020/12/24 09:48:21;;;;;;;15.93;4.15;;;;;;;0.07;49.34;101429.56;5002507;28;20058;-96
2020/12/24 09:50:51;;;;;;;8.48;5.63;;;;;;;-1.14;50.21;101259.94;4989400;28;20029;-96
2020/12/24 09:53:18;;;;;;;9.15;4.93;;;;;;;-0.16;50.76;101441.03;5034935;28;20074;-93
2020/12/24 09:55:45;;;;;;;17.20;5.95;;;;;;;0.93;50.80;101584.88;4988797;28;20023;-95
2020/12/24 09:58:12;;;;;;;19.50;5.97;;;;;;;-0.16;51.42;101404.81;5007245;28;20045;-95
2020/12/24 10:00:39;;;;;;;11.07;4.88;;;;;;;0.45;51.75;101518.25;4984529;28;20128;-93
2020/12/24 10:03:06;;;;;;;13.38;6.75;;;;;;;0.95;52.28;101620.16;5000858;28;20481;-91
2020/12/24 10:05:33;;;;;;;18.95;6.13;;;;;;;0.25;52.35;101494.00;5001543;28;20035;-89
2020/12/24 10:08:03;;;;;;;14.75;5.40;;;;;;;0.95;52.56;101626.47;4976598;28;20050;-94
2020/12/24 10:10:29;;;;;;;11.55;5.07;;;;;;;0.57;52.05;101529.69;4975177;28;20018;-92
2020/12/24 10:12:56;;;;;;;21.27;6.78;;;;;;;0.23;52.38;101460.63;4974679;28;20554;-92
2020/12/24 10:15:29;;;;;;;15.38;6.03;;;;;;;1.06;53.01;101613.53;4994410;28;20447;-93
2020/12/24 10:17:56;;;;;;;12.98;6.47;;;;;;;0.24;53.43;101481.41;5010754;28;20125;-92
2020/12/24 10:20:23;;;;;;;15.65;6.55;;;;;;;1.00;53.53;101611.50;4995171;28;20041;-94
2020/12/24 10:22:50;;;;;;;18.77;5.30;;;;;;;0.50;54.72;101575.84;4978860;28;20027;-94
2020/12/24 10:25:17;;;;;;;13.98;5.93;;;;;;;0.24;53.71;101530.44;4980046;28;20031;-96
2020/12/24 10:27:44;;;;;;;13.05;6.22;;;;;;;0.94;53.08;101643.84;4983854;28;20041;-94
2020/12/24 10:30:11;;;;;;;10.88;5.60;;;;;;;0.76;53.60;101632.16;4999774;28;20125;-96
2020/12/24 10:32:40;;;;;;;12.93;5.90;;;;;;;0.26;52.64;101528.38;4994194;28;20030;-93
2020/12/24 10:35:10;;;;;;;13.85;6.47;;;;;;;0.37;53.42;101579.00;4994126;28;20066;-96
2020/12/24 10:37:39;;;;;;;11.57;4.97;;;;;;;0.79;53.20;101649.03;4999453;28;20094;-95
2020/12/24 10:40:06;;;;;;;17.63;5.55;;;;;;;0.25;53.32;101564.81;4990709;28;20029;-91
2020/12/24 10:42:33;;;;;;;13.15;6.40;;;;;;;0.65;53.81;101636.88;4992745;28;20458;-94
2020/12/24 10:45:00;;;;;;;19.05;6.55;;;;;;;0.39;54.41;101610.53;4987092;28;20046;-94
2020/12/24 10:47:28;;;;;;;15.50;5.40;;;;;;;0.84;53.46;101645.88;5004981;28;20093;-92
2020/12/24 10:49:55;;;;;;;12.35;5.90;;;;;;;0.06;53.55;101550.41;4992557;28;20078;-95
2020/12/24 10:52:22;;;;;;;15.02;6.07;;;;;;;-0.49;54.24;101481.66;5011006;28;20030;-95
2020/12/24 10:54:49;;;;;;;11.18;5.47;;;;;;;-0.21;53.10;101511.44;5017807;28;20038;-91
2020/12/24 10:57:16;;;;;;;9.13;4.93;;;;;;;0.51;52.98;101683.81;5016529;28;20504;-95
2020/12/24 10:59:43;;;;;;;14.07;5.90;;;;;;;-0.78;53.65;101477.34;5001828;28;20117;-94
2020/12/24 11:02:10;;;;;;;13.52;6.13;;;;;;;0.43;53.28;101678.31;4983794;28;20026;-95
2020/12/24 11:04:37;;;;;;;11.32;7.35;;;;;;;0.38;53.86;101685.13;4997601;28;20033;-95
2020/12/24 11:07:04;;;;;;;14.70;6.75;;;;;;;0.05;54.07;101616.75;4993061;28;20033;-96
2020/12/24 11:09:31;;;;;;;26.90;7.47;;;;;;;-0.08;53.20;101580.94;5001245;28;20381;-96
2020/12/24 11:11:58;;;;;;;20.25;7.35;;;;;;;-0.01;53.48;101606.50;5010668;28;20030;-96
2020/12/24 11:14:25;;;;;;;12.88;7.18;;;;;;;0.09;53.96;101641.81;4993135;28;20352;-96
2020/12/24 11:16:52;;;;;;;12.30;6.10;;;;;;;-0.02;54.43;101635.63;4987064;28;20395;-95
2020/12/24 11:19:19;;;;;;;17.95;7.50;;;;;;;0.02;53.98;101625.25;5002962;28;20032;-95
2020/12/24 11:21:46;;;;;;;16.00;8.73;;;;;;;0.09;53.95;101629.06;4995015;28;20039;-95
2020/12/24 11:24:13;;;;;;;11.25;6.00;;;;;;;-1.06;53.51;101411.34;4993932;28;20042;-95
2020/12/24 11:26:40;;;;;;;12.50;7.00;;;;;;;-0.45;54.03;101548.34;4994906;28;20106;-94
2020/12/24 11:29:08;;;;;;;15.50;6.50;;;;;;;0.28;53.77;101669.88;5019531;28;20037;-93
2020/12/24 11:31:37;;;;;;;14.35;6.70;;;;;;;-0.74;54.34;101499.63;5012537;28;20029;-95
2020/12/24 11:34:06;;;;;;;15.93;6.72;;;;;;;0.52;54.33;101712.78;5004359;28;20029;-95
2020/12/24 11:36:33;;;;;;;13.55;6.75;;;;;;;0.23;54.81;101686.72;5026477;28;20092;-92
2020/12/24 11:39:00;;;;;;;17.98;7.20;;;;;;;-1.43;54.67;101429.53;5007848;28;20027;-95
2020/12/24 11:41:30;;;;;;;16.40;6.53;;;;;;;-1.22;53.72;101399.31;4984874;28;20574;-93
2020/12/24 11:43:58;;;;;;;17.53;5.73;;;;;;;0.34;53.50;101669.22;4968547;28;20086;-91
2020/12/24 11:46:27;;;;;;;13.02;5.72;;;;;;;0.43;53.98;101708.28;4969110;28;20039;-92
2020/12/24 11:48:56;;;;;;;14.93;7.88;;;;;;;-0.38;54.13;101583.94;4961045;28;20069;-91
2020/12/24 11:51:27;;;;;;;16.67;6.30;;;;;;;-0.60;53.80;101561.63;4959081;28;20034;-96
2020/12/24 11:53:54;;;;;;;12.75;6.50;;;;;;;-0.21;53.65;101639.38;4981260;28;20057;-94
2020/12/24 11:56:22;;;;;;;12.25;4.53;;;;;;;0.33;52.16;101731.03;4963621;28;20030;-94
2020/12/24 11:58:51;;;;;;;11.25;6.63;;;;;;;0.09;52.13;101669.91;4965796;28;20050;-96
2020/12/24 12:01:22;;;;;;;16.77;6.57;;;;;;;-1.31;52.20;101441.03;4973207;28;20480;-92
2020/12/24 12:03:50;;;;;;;14.60;5.32;;;;;;;-0.59;51.75;101552.47;4968961;28;20058;-92